createdAt,value
2019-05-07T00:00:38.486Z,1002.62
2019-05-07T00:01:38.476Z,1002.61
2019-05-07T00:02:38.466Z,1002.61
2019-05-07T00:03:38.467Z,1002.64
2019-05-07T00:04:38.766Z,1002.65
2019-05-07T00:05:38.430Z,1002.60
2019-05-07T00:06:38.418Z,1002.61
2019-05-07T00:07:38.411Z,1002.57
2019-05-07T00:08:38.411Z,1002.63
2019-05-07T00:09:38.392Z,1002.65
2019-05-07T00:10:38.412Z,1002.59
2019-05-07T00:11:38.372Z,1002.57
2019-05-07T00:12:38.359Z,1002.59
2019-05-07T00:13:38.375Z,1002.53
2019-05-07T00:14:38.337Z,1002.57
2019-05-07T00:15:38.322Z,1002.56
2019-05-07T00:16:38.315Z,1002.59
2019-05-07T00:17:38.305Z,1002.54
2019-05-07T00:18:38.322Z,1002.55
2019-05-07T00:19:38.279Z,1002.57
2019-05-07T00:20:38.273Z,1002.54
2019-05-07T00:21:38.260Z,1002.53
2019-05-07T00:22:38.246Z,1002.53
2019-05-07T00:23:38.273Z,1002.51
2019-05-07T00:24:38.226Z,1002.59
2019-05-07T00:25:38.218Z,1002.54
2019-05-07T00:26:38.205Z,1002.62
2019-05-07T00:27:38.194Z,1002.44
2019-05-07T00:28:38.184Z,1002.53
2019-05-07T00:29:38.204Z,1002.48
2019-05-07T00:30:38.164Z,1002.45
2019-05-07T00:31:38.162Z,1002.52
2019-05-07T00:32:38.155Z,1002.60
2019-05-07T00:33:38.132Z,1002.57
2019-05-07T00:34:38.148Z,1002.47
2019-05-07T00:35:38.121Z,1002.61
2019-05-07T00:36:38.100Z,1002.55
2019-05-07T00:37:38.091Z,1002.50
2019-05-07T00:38:38.079Z,1002.50
2019-05-07T00:39:38.087Z,1002.59
2019-05-07T00:40:38.056Z,1002.64
2019-05-07T00:41:39.190Z,1002.57
2019-05-07T00:42:38.037Z,1002.57
2019-05-07T00:43:38.025Z,1002.57
2019-05-07T00:44:38.043Z,1002.63
2019-05-07T00:45:38.006Z,1002.53
2019-05-07T00:46:37.993Z,1002.53
2019-05-07T00:47:37.989Z,1002.60
2019-05-07T00:48:37.985Z,1002.62
2019-05-07T00:49:37.989Z,1002.59
2019-05-07T00:50:37.950Z,1002.54
2019-05-07T00:51:37.939Z,1002.54
2019-05-07T00:52:37.926Z,1002.49
2019-05-07T00:53:37.933Z,1002.56
2019-05-07T00:54:37.936Z,1002.59
2019-05-07T00:55:37.895Z,1002.59
2019-05-07T00:56:37.882Z,1002.59
2019-05-07T00:57:37.875Z,1002.59
2019-05-07T00:58:37.871Z,1002.64
2019-05-07T00:59:37.880Z,1002.64
2019-05-07T01:00:37.845Z,1002.59
2019-05-07T01:01:37.830Z,1002.60
2019-05-07T01:02:37.822Z,1002.61
2019-05-07T01:03:37.831Z,1002.63
2019-05-07T01:04:37.826Z,1002.61
2019-05-07T01:05:37.785Z,1002.54
2019-05-07T01:06:37.787Z,1002.59
2019-05-07T01:07:37.769Z,1002.62
2019-05-07T01:08:37.754Z,1002.58
2019-05-07T01:09:37.775Z,1002.64
2019-05-07T01:10:37.742Z,1002.59
2019-05-07T01:11:37.727Z,1002.64
2019-05-07T01:12:37.716Z,1002.62
2019-05-07T01:13:37.708Z,1002.64
2019-05-07T01:14:37.991Z,1002.71
2019-05-07T01:15:37.686Z,1002.61
2019-05-07T01:16:37.677Z,1002.61
2019-05-07T01:17:37.663Z,1002.59
2019-05-07T01:18:37.653Z,1002.55
2019-05-07T01:19:37.642Z,1002.60
2019-05-07T01:20:37.661Z,1002.55
2019-05-07T01:21:37.624Z,1002.56
2019-05-07T01:22:37.606Z,1002.56
2019-05-07T01:23:37.601Z,1002.60
2019-05-07T01:24:37.596Z,1002.58
2019-05-07T01:25:37.604Z,1002.59
2019-05-07T01:26:37.567Z,1002.65
2019-05-07T01:27:37.556Z,1002.58
2019-05-07T01:28:37.552Z,1002.60
2019-05-07T01:29:37.534Z,1002.59
2019-05-07T01:30:37.549Z,1002.55
2019-05-07T01:31:37.510Z,1002.57
2019-05-07T01:32:37.500Z,1002.62
2019-05-07T01:33:37.494Z,1002.67
2019-05-07T01:34:37.487Z,1002.64
2019-05-07T01:35:37.496Z,1002.65
2019-05-07T01:36:37.460Z,1002.58
2019-05-07T01:37:37.447Z,1002.64
2019-05-07T01:38:37.441Z,1002.67
2019-05-07T01:39:37.430Z,1002.67
2019-05-07T01:40:37.447Z,1002.72
2019-05-07T01:41:37.407Z,1002.69
2019-05-07T01:42:37.396Z,1002.66
2019-05-07T01:43:37.387Z,1002.68
2019-05-07T01:44:37.375Z,1002.63
2019-05-07T01:45:48.190Z,1002.67
2019-05-07T01:46:38.354Z,1002.64
2019-05-07T01:47:37.343Z,1002.66
2019-05-07T01:48:37.331Z,1002.60
2019-05-07T01:49:37.324Z,1002.60
2019-05-07T01:50:37.315Z,1002.57
2019-05-07T01:51:37.327Z,1002.58
2019-05-07T01:52:37.296Z,1002.56
2019-05-07T01:53:37.282Z,1002.54
2019-05-07T01:54:37.291Z,1002.56
2019-05-07T01:55:37.259Z,1002.55
2019-05-07T01:56:37.281Z,1002.56
2019-05-07T01:57:37.235Z,1002.48
2019-05-07T01:58:37.232Z,1002.56
2019-05-07T01:59:37.216Z,1002.52
2019-05-07T02:00:37.212Z,1002.55
2019-05-07T02:01:37.219Z,1002.47
2019-05-07T02:02:37.183Z,1002.48
2019-05-07T02:03:37.180Z,1002.49
2019-05-07T02:04:37.165Z,1002.52
2019-05-07T02:05:37.177Z,1002.43
2019-05-07T02:06:37.183Z,1002.50
2019-05-07T02:07:37.130Z,1002.52
2019-05-07T02:08:37.118Z,1002.53
2019-05-07T02:09:37.113Z,1002.58
2019-05-07T02:10:37.102Z,1002.53
2019-05-07T02:11:37.088Z,1002.49
2019-05-07T02:12:37.110Z,1002.57
2019-05-07T02:13:37.071Z,1002.54
2019-05-07T02:14:37.058Z,1002.53
2019-05-07T02:15:37.046Z,1002.63
2019-05-07T02:16:37.040Z,1002.57
2019-05-07T02:17:37.054Z,1002.57
2019-05-07T02:18:37.024Z,1002.59
2019-05-07T02:19:37.006Z,1002.55
2019-05-07T02:20:36.998Z,1002.64
2019-05-07T02:21:36.982Z,1002.64
2019-05-07T02:22:37.002Z,1002.64
2019-05-07T02:23:36.967Z,1002.64
2019-05-07T02:24:36.954Z,1002.60
2019-05-07T02:25:36.942Z,1002.55
2019-05-07T02:26:36.937Z,1002.61
2019-05-07T02:27:36.957Z,1002.61
2019-05-07T02:28:36.913Z,1002.51
2019-05-07T02:29:38.241Z,1002.56
2019-05-07T02:30:36.901Z,1002.61
2019-05-07T02:31:36.879Z,1002.60
2019-05-07T02:32:36.905Z,1002.56
2019-05-07T02:33:36.860Z,1002.58
2019-05-07T02:34:36.863Z,1002.54
2019-05-07T02:35:36.847Z,1002.56
2019-05-07T02:36:36.882Z,1002.49
2019-05-07T02:37:48.461Z,1002.63
2019-05-07T02:38:37.814Z,1002.53
2019-05-07T02:39:36.801Z,1002.52
2019-05-07T02:40:36.792Z,1002.56
2019-05-07T02:41:36.777Z,1002.58
2019-05-07T02:42:36.809Z,1002.52
2019-05-07T02:43:36.757Z,1002.56
2019-05-07T02:44:36.770Z,1002.57
2019-05-07T02:45:36.745Z,1002.58
2019-05-07T02:46:36.839Z,1002.54
2019-05-07T02:47:36.758Z,1002.59
2019-05-07T02:48:36.728Z,1002.57
2019-05-07T02:49:36.697Z,1002.54
2019-05-07T02:50:36.686Z,1002.62
2019-05-07T02:51:36.692Z,1002.53
2019-05-07T02:52:36.661Z,1002.56
2019-05-07T02:53:36.677Z,1002.53
2019-05-07T02:54:36.647Z,1002.59
2019-05-07T02:55:36.628Z,1002.52
2019-05-07T02:56:36.626Z,1002.57
2019-05-07T02:57:36.672Z,1002.49
2019-05-07T02:58:36.625Z,1002.52
2019-05-07T02:59:36.595Z,1002.45
2019-05-07T03:00:36.584Z,1002.50
2019-05-07T03:01:36.568Z,1002.47
2019-05-07T03:02:36.569Z,1002.60
2019-05-07T03:03:36.575Z,1002.61
2019-05-07T03:04:36.535Z,1002.58
2019-05-07T03:05:36.529Z,1002.49
2019-05-07T03:06:36.517Z,1002.52
2019-05-07T03:07:36.502Z,1002.51
2019-05-07T03:08:36.527Z,1002.51
2019-05-07T03:09:36.618Z,1002.51
2019-05-07T03:10:36.470Z,1002.46
2019-05-07T03:11:36.464Z,1002.44
2019-05-07T03:12:36.454Z,1002.51
2019-05-07T03:13:36.473Z,1002.47
2019-05-07T03:14:36.435Z,1002.46
2019-05-07T03:15:36.425Z,1002.51
2019-05-07T03:16:43.710Z,1002.50
2019-05-07T03:17:37.400Z,1002.45
2019-05-07T03:18:36.415Z,1002.50
2019-05-07T03:19:36.381Z,1002.51
2019-05-07T03:20:36.370Z,1002.41
2019-05-07T03:21:36.361Z,1002.49
2019-05-07T03:22:36.346Z,1002.49
2019-05-07T03:23:36.377Z,1002.47
2019-05-07T03:24:36.324Z,1002.51
2019-05-07T03:25:36.314Z,1002.45
2019-05-07T03:26:36.303Z,1002.47
2019-05-07T03:27:36.293Z,1002.54
2019-05-07T03:28:36.310Z,1002.43
2019-05-07T03:29:36.271Z,1002.47
2019-05-07T03:30:36.677Z,1002.48
2019-05-07T03:31:36.872Z,1002.57
2019-05-07T03:32:38.947Z,1002.47
2019-05-07T03:33:37.046Z,1002.53
2019-05-07T03:34:37.344Z,1002.47
2019-05-07T03:35:37.631Z,1002.43
2019-05-07T03:36:36.198Z,1002.58
2019-05-07T03:37:36.703Z,1002.56
2019-05-07T03:38:36.207Z,1002.57
2019-05-07T03:39:36.178Z,1002.48
2019-05-07T03:40:36.158Z,1002.54
2019-05-07T03:41:36.150Z,1002.54
2019-05-07T03:42:36.144Z,1002.49
2019-05-07T03:43:36.156Z,1002.51
2019-05-07T03:44:36.122Z,1002.51
2019-05-07T03:45:36.118Z,1002.46
2019-05-07T03:46:52.798Z,1002.50
2019-05-07T03:47:37.090Z,1002.49
2019-05-07T03:48:36.112Z,1002.46
2019-05-07T03:49:36.067Z,1002.51
2019-05-07T03:50:36.053Z,1002.51
2019-05-07T03:51:36.041Z,1002.53
2019-05-07T03:52:36.033Z,1002.54
2019-05-07T03:53:36.019Z,1002.53
2019-05-07T03:54:36.042Z,1002.54
2019-05-07T03:55:36.000Z,1002.58
2019-05-07T03:56:36.011Z,1002.51
2019-05-07T03:57:35.982Z,1002.59
2019-05-07T03:58:35.967Z,1002.57
2019-05-07T03:59:35.980Z,1002.52
2019-05-07T04:00:35.949Z,1002.53
2019-05-07T04:01:35.976Z,1002.50
2019-05-07T04:02:35.936Z,1002.54
2019-05-07T04:03:35.918Z,1002.54
2019-05-07T04:04:35.927Z,1002.56
2019-05-07T04:05:35.913Z,1002.51
2019-05-07T04:06:35.887Z,1002.54
2019-05-07T04:07:35.873Z,1002.56
2019-05-07T04:08:35.861Z,1002.58
2019-05-07T04:09:35.881Z,1002.62
2019-05-07T04:10:35.844Z,1002.62
2019-05-07T04:11:35.828Z,1002.59
2019-05-07T04:12:35.821Z,1002.56
2019-05-07T04:13:35.809Z,1002.66
2019-05-07T04:14:35.829Z,1002.60
2019-05-07T04:15:35.782Z,1002.62
2019-05-07T04:16:35.776Z,1002.64
2019-05-07T04:17:35.766Z,1002.65
2019-05-07T04:18:35.755Z,1002.64
2019-05-07T04:19:35.766Z,1002.66
2019-05-07T04:20:35.732Z,1002.67
2019-05-07T04:21:35.721Z,1002.59
2019-05-07T04:22:35.706Z,1002.63
2019-05-07T04:23:35.711Z,1002.62
2019-05-07T04:24:35.713Z,1002.56
2019-05-07T04:25:35.681Z,1002.58
2019-05-07T04:26:35.672Z,1002.58
2019-05-07T04:27:35.656Z,1002.60
2019-05-07T04:28:35.658Z,1002.54
2019-05-07T04:29:35.664Z,1002.58
2019-05-07T04:30:35.642Z,1002.63
2019-05-07T04:31:35.612Z,1002.55
2019-05-07T04:32:35.602Z,1002.63
2019-05-07T04:33:35.619Z,1002.58
2019-05-07T04:34:35.580Z,1002.59
2019-05-07T04:35:35.578Z,1002.59
2019-05-07T04:36:35.561Z,1002.55
2019-05-07T04:37:35.665Z,1002.61
2019-05-07T04:38:35.577Z,1002.64
2019-05-07T04:39:35.528Z,1002.62
2019-05-07T04:40:35.528Z,1002.69
2019-05-07T04:41:35.510Z,1002.53
2019-05-07T04:42:35.514Z,1002.58
2019-05-07T04:43:35.519Z,1002.58
2019-05-07T04:44:35.474Z,1002.58
2019-05-07T04:45:35.467Z,1002.61
2019-05-07T04:46:35.453Z,1002.55
2019-05-07T04:47:43.212Z,1002.62
2019-05-07T04:48:36.464Z,1002.63
2019-05-07T04:49:35.420Z,1002.66
2019-05-07T04:50:43.073Z,1002.60
2019-05-07T04:51:36.401Z,1002.55
2019-05-07T04:52:35.389Z,1002.61
2019-05-07T04:53:35.404Z,1002.55
2019-05-07T04:54:35.378Z,1002.65
2019-05-07T04:55:35.355Z,1002.66
2019-05-07T04:56:35.347Z,1002.63
2019-05-07T04:57:35.341Z,1002.64
2019-05-07T04:58:35.351Z,1002.66
2019-05-07T04:59:35.318Z,1002.66
2019-05-07T05:00:35.311Z,1002.66
2019-05-07T05:01:35.298Z,1002.73
2019-05-07T05:02:35.282Z,1002.68
2019-05-07T05:03:39.009Z,1002.72
2019-05-07T05:04:35.263Z,1002.65
2019-05-07T05:05:35.273Z,1002.67
2019-05-07T05:06:35.295Z,1002.76
2019-05-07T05:07:35.232Z,1002.64
2019-05-07T05:08:35.239Z,1002.62
2019-05-07T05:09:35.205Z,1002.64
2019-05-07T05:10:35.195Z,1002.64
2019-05-07T05:11:35.197Z,1002.66
2019-05-07T05:12:35.176Z,1002.69
2019-05-07T05:13:35.188Z,1002.69
2019-05-07T05:14:35.157Z,1002.77
2019-05-07T05:15:35.162Z,1002.75
2019-05-07T05:16:35.135Z,1002.72
2019-05-07T05:17:47.141Z,1002.71
2019-05-07T05:18:36.140Z,1002.74
2019-05-07T05:19:35.098Z,1002.70
2019-05-07T05:20:35.087Z,1002.67
2019-05-07T05:21:35.075Z,1002.69
2019-05-07T05:22:35.063Z,1002.72
2019-05-07T05:23:35.089Z,1002.69
2019-05-07T05:24:35.047Z,1002.72
2019-05-07T05:25:35.045Z,1002.65
2019-05-07T05:26:35.026Z,1002.75
2019-05-07T05:27:35.012Z,1002.74
2019-05-07T05:28:35.040Z,1002.76
2019-05-07T05:29:34.992Z,1002.72
2019-05-07T05:30:34.988Z,1002.75
2019-05-07T05:31:34.986Z,1002.74
2019-05-07T05:32:34.958Z,1002.76
2019-05-07T05:33:34.949Z,1002.84
2019-05-07T05:34:34.962Z,1002.79
2019-05-07T05:35:34.950Z,1002.75
2019-05-07T05:36:34.920Z,1002.78
2019-05-07T05:37:34.931Z,1002.86
2019-05-07T05:38:34.894Z,1002.82
2019-05-07T05:39:34.916Z,1002.84
2019-05-07T05:40:34.881Z,1002.79
2019-05-07T05:41:37.794Z,1002.69
2019-05-07T05:42:34.855Z,1002.83
2019-05-07T05:43:34.847Z,1002.88
2019-05-07T05:44:34.864Z,1002.82
2019-05-07T05:45:34.828Z,1002.81
2019-05-07T05:46:34.819Z,1002.84
2019-05-07T05:47:34.806Z,1002.83
2019-05-07T05:48:34.792Z,1002.86
2019-05-07T05:49:34.808Z,1002.86
2019-05-07T05:50:34.775Z,1002.89
2019-05-07T05:51:34.768Z,1002.86
2019-05-07T05:52:34.751Z,1002.82
2019-05-07T05:53:34.738Z,1002.86
2019-05-07T05:54:34.755Z,1002.87
2019-05-07T05:55:34.715Z,1002.76
2019-05-07T05:56:34.713Z,1002.88
2019-05-07T05:57:34.700Z,1002.91
2019-05-07T05:58:34.683Z,1002.75
2019-05-07T05:59:48.211Z,1002.86
2019-05-07T06:00:35.673Z,1002.75
2019-05-07T06:01:34.653Z,1002.74
2019-05-07T06:02:34.646Z,1002.80
2019-05-07T06:03:34.633Z,1002.82
2019-05-07T06:04:34.655Z,1002.81
2019-05-07T06:05:34.698Z,1002.82
2019-05-07T06:06:34.600Z,1002.77
2019-05-07T06:07:34.588Z,1002.84
2019-05-07T06:08:34.579Z,1002.79
2019-05-07T06:09:34.597Z,1002.90
2019-05-07T06:10:34.575Z,1002.81
2019-05-07T06:11:34.546Z,1002.74
2019-05-07T06:12:34.539Z,1002.80
2019-05-07T06:13:34.529Z,1002.81
2019-05-07T06:14:34.542Z,1002.86
2019-05-07T06:15:34.528Z,1002.81
2019-05-07T06:16:36.605Z,1002.79
2019-05-07T06:17:34.488Z,1002.74
2019-05-07T06:18:34.471Z,1002.88
2019-05-07T06:19:34.486Z,1002.85
2019-05-07T06:20:34.454Z,1002.78
2019-05-07T06:21:34.465Z,1002.78
2019-05-07T06:22:34.429Z,1002.85
2019-05-07T06:23:34.415Z,1002.90
2019-05-07T06:24:34.434Z,1002.86
2019-05-07T06:25:34.408Z,1002.82
2019-05-07T06:26:34.384Z,1002.89
2019-05-07T06:27:34.378Z,1002.90
2019-05-07T06:28:34.365Z,1002.83
2019-05-07T06:29:34.379Z,1002.88
2019-05-07T06:30:34.345Z,1002.82
2019-05-07T06:31:34.331Z,1002.88
2019-05-07T06:32:34.327Z,1002.87
2019-05-07T06:33:34.310Z,1002.85
2019-05-07T06:34:34.390Z,1002.86
2019-05-07T06:35:34.295Z,1002.80
2019-05-07T06:36:34.284Z,1002.82
2019-05-07T06:37:34.271Z,1002.83
2019-05-07T06:38:34.262Z,1002.80
2019-05-07T06:39:34.280Z,1002.75
2019-05-07T06:40:34.236Z,1002.69
2019-05-07T06:41:34.231Z,1002.77
2019-05-07T06:42:34.216Z,1002.72
2019-05-07T06:43:34.208Z,1002.76
2019-05-07T06:44:34.223Z,1002.77
2019-05-07T06:45:35.444Z,1002.74
2019-05-07T06:46:34.176Z,1002.76
2019-05-07T06:47:34.162Z,1002.75
2019-05-07T06:48:41.853Z,1002.81
2019-05-07T06:49:35.136Z,1002.87
2019-05-07T06:50:34.129Z,1002.85
2019-05-07T06:51:34.119Z,1002.83
2019-05-07T06:52:34.112Z,1002.89
2019-05-07T06:53:34.130Z,1002.85
2019-05-07T06:54:34.098Z,1002.79
2019-05-07T06:55:34.087Z,1002.89
2019-05-07T06:56:34.064Z,1002.92
2019-05-07T06:57:34.058Z,1002.81
2019-05-07T06:58:34.072Z,1002.84
2019-05-07T06:59:34.759Z,1002.86
2019-05-07T07:00:34.021Z,1002.85
2019-05-07T07:01:34.023Z,1002.87
2019-05-07T07:02:33.995Z,1002.85
2019-05-07T07:03:34.014Z,1002.88
2019-05-07T07:04:33.981Z,1002.89
2019-05-07T07:05:33.968Z,1002.81
2019-05-07T07:06:33.962Z,1002.85
2019-05-07T07:07:37.238Z,1002.84
2019-05-07T07:08:33.965Z,1002.84
2019-05-07T07:09:33.923Z,1002.92
2019-05-07T07:10:33.914Z,1002.88
2019-05-07T07:11:33.992Z,1002.87
2019-05-07T07:12:33.894Z,1002.89
2019-05-07T07:13:33.909Z,1002.87
2019-05-07T07:14:33.877Z,1002.85
2019-05-07T07:15:33.863Z,1002.81
2019-05-07T07:16:33.847Z,1002.80
2019-05-07T07:17:33.844Z,1002.84
2019-05-07T07:18:48.174Z,1002.81
2019-05-07T07:19:36.196Z,1002.92
2019-05-07T07:20:33.809Z,1002.81
2019-05-07T07:21:33.795Z,1002.77
2019-05-07T07:22:33.802Z,1002.76
2019-05-07T07:23:33.823Z,1002.82
2019-05-07T07:24:33.767Z,1002.83
2019-05-07T07:25:33.768Z,1002.73
2019-05-07T07:26:33.744Z,1002.79
2019-05-07T07:27:33.736Z,1002.81
2019-05-07T07:28:33.727Z,1002.79
2019-05-07T07:29:33.781Z,1002.80
2019-05-07T07:30:33.708Z,1002.79
2019-05-07T07:31:33.692Z,1002.77
2019-05-07T07:32:33.679Z,1002.79
2019-05-07T07:33:33.672Z,1002.78
2019-05-07T07:34:33.686Z,1002.80
2019-05-07T07:35:33.649Z,1002.79
2019-05-07T07:36:33.639Z,1002.81
2019-05-07T07:37:33.623Z,1002.80
2019-05-07T07:38:33.622Z,1002.83
2019-05-07T07:39:33.672Z,1002.83
2019-05-07T07:40:33.594Z,1002.76
2019-05-07T07:41:33.585Z,1002.88
2019-05-07T07:42:33.578Z,1002.76
2019-05-07T07:43:33.560Z,1002.81
2019-05-07T07:44:33.578Z,1002.81
2019-05-07T07:45:33.540Z,1002.79
2019-05-07T07:46:33.531Z,1002.76
2019-05-07T07:47:33.521Z,1002.77
2019-05-07T07:48:33.517Z,1002.80
2019-05-07T07:49:33.531Z,1002.78
2019-05-07T07:50:33.487Z,1002.76
2019-05-07T07:51:41.537Z,1002.81
2019-05-07T07:52:34.475Z,1002.78
2019-05-07T07:53:35.475Z,1002.83
2019-05-07T07:54:33.473Z,1002.75
2019-05-07T07:55:33.439Z,1002.76
2019-05-07T07:56:48.306Z,1002.79
2019-05-07T07:57:34.417Z,1002.80
2019-05-07T07:58:34.249Z,1002.73
2019-05-07T07:59:33.420Z,1002.75
2019-05-07T08:00:33.389Z,1002.77
2019-05-07T08:01:33.375Z,1002.79
2019-05-07T08:02:33.362Z,1002.68
2019-05-07T08:03:33.358Z,1002.73
2019-05-07T08:04:33.367Z,1002.75
2019-05-07T08:05:33.335Z,1002.76
2019-05-07T08:06:33.321Z,1002.71
2019-05-07T08:07:33.322Z,1002.69
2019-05-07T08:08:33.306Z,1002.71
2019-05-07T08:09:33.330Z,1002.70
2019-05-07T08:10:33.285Z,1002.69
2019-05-07T08:11:33.288Z,1002.70
2019-05-07T08:12:33.258Z,1002.73
2019-05-07T08:13:33.249Z,1002.72
2019-05-07T08:14:33.287Z,1002.70
2019-05-07T08:15:33.268Z,1002.71
2019-05-07T08:16:33.220Z,1002.69
2019-05-07T08:17:33.211Z,1002.64
2019-05-07T08:18:33.229Z,1002.68
2019-05-07T08:19:33.186Z,1002.73
2019-05-07T08:20:33.207Z,1002.62
2019-05-07T08:21:33.342Z,1002.68
2019-05-07T08:22:33.156Z,1002.76
2019-05-07T08:23:33.191Z,1002.71
2019-05-07T08:24:33.186Z,1002.70
2019-05-07T08:25:33.335Z,1002.67
2019-05-07T08:26:33.113Z,1002.60
2019-05-07T08:27:33.135Z,1002.62
2019-05-07T08:28:33.105Z,1002.58
2019-05-07T08:29:33.082Z,1002.64
2019-05-07T08:30:33.094Z,1002.58
2019-05-07T08:31:33.060Z,1002.67
2019-05-07T08:32:33.048Z,1002.58
2019-05-07T08:33:33.040Z,1002.66
2019-05-07T08:34:33.034Z,1002.65
2019-05-07T08:35:33.052Z,1002.53
2019-05-07T08:36:33.238Z,1002.56
2019-05-07T08:37:32.996Z,1002.66
2019-05-07T08:38:32.980Z,1002.55
2019-05-07T08:39:32.973Z,1002.62
2019-05-07T08:40:32.995Z,1002.67
2019-05-07T08:41:32.950Z,1002.64
2019-05-07T08:42:32.941Z,1002.70
2019-05-07T08:43:33.022Z,1002.65
2019-05-07T08:44:32.921Z,1002.60
2019-05-07T08:45:33.004Z,1002.71
2019-05-07T08:46:32.923Z,1002.73
2019-05-07T08:47:32.888Z,1002.70
2019-05-07T08:48:32.880Z,1002.73
2019-05-07T08:49:38.926Z,1002.61
2019-05-07T08:50:33.894Z,1002.77
2019-05-07T08:51:32.849Z,1002.72
2019-05-07T08:52:32.846Z,1002.78
2019-05-07T08:53:32.934Z,1002.77
2019-05-07T08:54:32.814Z,1002.59
2019-05-07T08:55:32.803Z,1002.51
2019-05-07T08:56:32.825Z,1002.58
2019-05-07T08:57:32.793Z,1002.55
2019-05-07T08:58:32.782Z,1002.54
2019-05-07T08:59:32.766Z,1002.61
2019-05-07T09:00:32.754Z,1002.64
2019-05-07T09:01:32.766Z,1002.64
2019-05-07T09:02:32.789Z,1002.52
2019-05-07T09:03:32.718Z,1002.62
2019-05-07T09:04:33.055Z,1002.78
2019-05-07T09:05:32.707Z,1002.74
2019-05-07T09:06:32.723Z,1002.73
2019-05-07T09:07:32.680Z,1002.65
2019-05-07T09:08:32.668Z,1002.56
2019-05-07T09:09:32.867Z,1002.50
2019-05-07T09:10:32.730Z,1002.52
2019-05-07T09:11:32.667Z,1002.65
2019-05-07T09:12:32.637Z,1002.60
2019-05-07T09:13:33.328Z,1002.56
2019-05-07T09:14:32.624Z,1002.66
2019-05-07T09:15:32.595Z,1002.53
2019-05-07T09:16:32.614Z,1002.65
2019-05-07T09:17:32.576Z,1002.65
2019-05-07T09:18:32.567Z,1002.53
2019-05-07T09:19:40.477Z,1002.68
2019-05-07T09:20:33.547Z,1002.54
2019-05-07T09:21:32.576Z,1002.52
2019-05-07T09:22:32.590Z,1002.44
2019-05-07T09:23:32.513Z,1002.49
2019-05-07T09:24:33.374Z,1002.38
2019-05-07T09:25:32.585Z,1002.37
2019-05-07T09:26:32.483Z,1002.37
2019-05-07T09:27:32.794Z,1002.43
2019-05-07T09:28:32.693Z,1002.43
2019-05-07T09:29:32.493Z,1002.38
2019-05-07T09:30:32.758Z,1002.36
2019-05-07T09:31:32.436Z,1002.34
2019-05-07T09:32:32.787Z,1002.39
2019-05-07T09:33:32.403Z,1002.29
2019-05-07T09:34:32.752Z,1002.36
2019-05-07T09:35:32.388Z,1002.39
2019-05-07T09:36:32.370Z,1002.55
2019-05-07T09:37:32.696Z,1002.38
2019-05-07T09:38:32.856Z,1002.42
2019-05-07T09:39:32.557Z,1002.45
2019-05-07T09:40:32.331Z,1002.42
2019-05-07T09:41:32.746Z,1002.40
2019-05-07T09:42:33.280Z,1002.36
2019-05-07T09:43:32.633Z,1002.35
2019-05-07T09:44:32.591Z,1002.28
2019-05-07T09:45:32.883Z,1002.44
2019-05-07T09:46:32.654Z,1002.38
2019-05-07T09:47:32.648Z,1002.32
2019-05-07T09:48:33.792Z,1002.39
2019-05-07T09:49:32.645Z,1002.36
2019-05-07T09:50:32.657Z,1002.31
2019-05-07T09:51:32.346Z,1002.36
2019-05-07T09:52:32.338Z,1002.38
2019-05-07T09:53:32.276Z,1002.31
2019-05-07T09:54:32.446Z,1002.32
2019-05-07T09:55:32.735Z,1002.34
2019-05-07T09:56:32.165Z,1002.34
2019-05-07T09:57:34.655Z,1002.38
2019-05-07T09:58:36.659Z,1002.36
2019-05-07T09:59:33.126Z,1002.32
2019-05-07T10:00:32.202Z,1002.31
2019-05-07T10:01:32.162Z,1002.34
2019-05-07T10:02:32.242Z,1002.23
2019-05-07T10:03:32.542Z,1002.34
2019-05-07T10:04:32.716Z,1002.31
2019-05-07T10:05:32.288Z,1002.26
2019-05-07T10:06:32.242Z,1002.30
2019-05-07T10:07:32.614Z,1002.32
2019-05-07T10:08:32.041Z,1002.25
2019-05-07T10:09:32.864Z,1002.30
2019-05-07T10:10:32.935Z,1002.22
2019-05-07T10:11:32.871Z,1002.27
2019-05-07T10:12:32.956Z,1002.21
2019-05-07T10:13:33.041Z,1002.23
2019-05-07T10:14:33.049Z,1002.21
2019-05-07T10:15:33.149Z,1002.16
2019-05-07T10:16:31.955Z,1002.23
2019-05-07T10:17:32.765Z,1002.17
2019-05-07T10:18:32.100Z,1002.16
2019-05-07T10:19:32.464Z,1002.14
2019-05-07T10:20:32.748Z,1002.17
2019-05-07T10:21:31.897Z,1002.19
2019-05-07T10:22:32.265Z,1002.13
2019-05-07T10:23:31.904Z,1002.09
2019-05-07T10:24:31.867Z,1002.19
2019-05-07T10:25:32.789Z,1002.20
2019-05-07T10:26:32.285Z,1002.12
2019-05-07T10:27:32.432Z,1002.13
2019-05-07T10:28:32.197Z,1002.14
2019-05-07T10:29:32.337Z,1002.10
2019-05-07T10:30:32.224Z,1002.13
2019-05-07T10:31:32.114Z,1002.10
2019-05-07T10:32:32.229Z,1002.06
2019-05-07T10:33:32.097Z,1002.01
2019-05-07T10:34:31.762Z,1002.08
2019-05-07T10:35:33.745Z,1002.05
2019-05-07T10:36:32.115Z,1002.06
2019-05-07T10:37:32.026Z,1002.09
2019-05-07T10:38:31.749Z,1002.08
2019-05-07T10:39:32.572Z,1002.08
2019-05-07T10:40:32.714Z,1002.06
2019-05-07T10:41:31.929Z,1001.99
2019-05-07T10:42:32.361Z,1002.02
2019-05-07T10:43:32.737Z,1001.97
2019-05-07T10:44:32.162Z,1001.98
2019-05-07T10:45:32.263Z,1001.99
2019-05-07T10:46:31.997Z,1001.94
2019-05-07T10:47:31.627Z,1001.94
2019-05-07T10:48:32.074Z,1001.94
2019-05-07T10:49:31.812Z,1002.05
2019-05-07T10:50:38.378Z,1001.99
2019-05-07T10:51:32.581Z,1002.08
2019-05-07T10:52:31.959Z,1001.92
2019-05-07T10:53:32.135Z,1001.94
2019-05-07T10:54:31.553Z,1001.96
2019-05-07T10:55:32.808Z,1001.90
2019-05-07T10:56:32.667Z,1001.92
2019-05-07T10:57:32.879Z,1001.94
2019-05-07T10:58:32.171Z,1001.90
2019-05-07T10:59:31.495Z,1001.88
2019-05-07T11:00:33.078Z,1001.89
2019-05-07T11:01:32.870Z,1001.82
2019-05-07T11:02:32.455Z,1001.91
2019-05-07T11:03:32.430Z,1001.86
2019-05-07T11:04:40.129Z,1001.94
2019-05-07T11:05:32.806Z,1001.91
2019-05-07T11:06:32.375Z,1001.89
2019-05-07T11:07:32.795Z,1001.91
2019-05-07T11:08:32.936Z,1001.81
2019-05-07T11:09:32.793Z,1001.94
2019-05-07T11:10:32.602Z,1001.90
2019-05-07T11:11:31.882Z,1001.86
2019-05-07T11:12:31.984Z,1001.81
2019-05-07T11:13:31.379Z,1001.99
2019-05-07T11:14:32.118Z,1001.82
2019-05-07T11:15:32.731Z,1001.77
2019-05-07T11:16:32.445Z,1001.82
2019-05-07T11:17:32.670Z,1001.86
2019-05-07T11:18:32.304Z,1001.92
2019-05-07T11:19:32.450Z,1002.01
2019-05-07T11:20:32.034Z,1002.00
2019-05-07T11:21:33.333Z,1001.92
2019-05-07T11:22:32.777Z,1001.91
2019-05-07T11:23:32.708Z,1001.85
2019-05-07T11:24:32.107Z,1001.85
2019-05-07T11:25:31.233Z,1001.75
2019-05-07T11:26:32.923Z,1001.78
2019-05-07T11:27:32.966Z,1001.71
2019-05-07T11:28:32.406Z,1001.74
2019-05-07T11:29:32.786Z,1001.72
2019-05-07T11:30:32.068Z,1001.72
2019-05-07T11:31:33.074Z,1001.58
2019-05-07T11:32:32.142Z,1001.41
2019-05-07T11:33:32.527Z,1001.32
2019-05-07T11:34:32.727Z,1001.36
2019-05-07T11:35:31.883Z,1001.32
2019-05-07T11:36:32.060Z,1001.31
2019-05-07T11:37:31.110Z,1001.37
2019-05-07T11:38:33.119Z,1001.37
2019-05-07T11:39:33.095Z,1001.40
2019-05-07T11:40:32.054Z,1001.57
2019-05-07T11:41:32.088Z,1001.75
2019-05-07T11:42:31.063Z,1001.41
2019-05-07T11:43:32.647Z,1001.73
2019-05-07T11:44:32.071Z,1001.57
2019-05-07T11:45:32.142Z,1001.55
2019-05-07T11:46:32.761Z,1001.60
2019-05-07T11:47:31.903Z,1001.65
2019-05-07T11:48:33.579Z,1001.58
2019-05-07T11:49:32.765Z,1001.57
2019-05-07T11:50:32.866Z,1001.59
2019-05-07T11:51:33.278Z,1001.63
2019-05-07T11:52:35.177Z,1001.57
2019-05-07T11:53:32.699Z,1001.57
2019-05-07T11:54:31.826Z,1001.21
2019-05-07T11:55:30.926Z,1001.23
2019-05-07T11:56:32.835Z,1001.18
2019-05-07T11:57:30.911Z,1001.16
2019-05-07T11:58:32.558Z,1001.14
2019-05-07T11:59:32.600Z,1001.19
2019-05-07T12:00:32.362Z,1001.15
2019-05-07T12:01:43.519Z,1001.18
2019-05-07T12:02:32.069Z,1001.10
2019-05-07T12:03:32.461Z,1001.15
2019-05-07T12:04:32.044Z,1001.14
2019-05-07T12:05:33.032Z,1001.07